Time;durP1;ratioP1;P1;durP2;ratioP2;P2;SDS_P1;SDS_P2;PMS_P1;PMS_P2;Temp;Humidity;BMP_temperature;BMP_pressure;BME280_temperature;BME280_humidity;BME280_pressure;Samples;Min_cycle;Max_cycle;Signal;HPM_P1;HPM_P2
2023/07/02 00:01:46;;;;;;;4.30;3.80;;;16.10;99.90;;;;;;5052867;28;20496;-63
2023/07/02 00:04:16;;;;;;;4.47;4.07;;;16.10;99.90;;;;;;5053111;28;20938;-63
2023/07/02 00:06:43;;;;;;;6.40;4.47;;;16.10;99.90;;;;;;5053034;28;20451;-62
2023/07/02 00:09:10;;;;;;;4.30;3.90;;;16.00;99.90;;;;;;5053467;28;20470;-62
2023/07/02 00:11:37;;;;;;;9.17;3.73;;;16.00;99.90;;;;;;5053569;28;20486;-63
2023/07/02 00:14:04;;;;;;;3.50;3.20;;;16.00;99.90;;;;;;5053013;28;20451;-62
2023/07/02 00:16:31;;;;;;;4.47;3.50;;;16.00;99.90;;;;;;5053242;28;20478;-62
2023/07/02 00:18:59;;;;;;;5.80;3.60;;;16.00;99.90;;;;;;5053459;28;20451;-62
2023/07/02 00:21:28;;;;;;;5.73;3.60;;;16.00;99.90;;;;;;5053587;28;20499;-62
2023/07/02 00:23:56;;;;;;;3.97;3.67;;;16.00;99.90;;;;;;5053730;28;20452;-62
2023/07/02 00:26:24;;;;;;;4.73;3.40;;;15.90;99.90;;;;;;5053471;28;20491;-62
2023/07/02 00:28:51;;;;;;;4.20;3.27;;;15.90;99.90;;;;;;5058319;28;20440;-62
2023/07/02 00:31:18;;;;;;;4.00;3.20;;;15.90;99.90;;;;;;5057389;28;20479;-61
2023/07/02 00:33:44;;;;;;;3.93;3.40;;;15.90;99.90;;;;;;5057839;28;20440;-61
2023/07/02 00:36:14;;;;;;;3.50;3.17;;;15.90;99.90;;;;;;5058120;28;20480;-61
2023/07/02 00:38:43;;;;;;;2.97;2.70;;;15.90;99.90;;;;;;5058132;28;20448;-61
2023/07/02 00:41:10;;;;;;;4.53;3.00;;;15.80;99.90;;;;;;5059035;28;20468;-61
2023/07/02 00:43:39;;;;;;;3.77;3.43;;;15.80;99.90;;;;;;5057914;28;20447;-61
2023/07/02 00:46:06;;;;;;;3.80;3.30;;;15.80;99.90;;;;;;5057459;28;20942;-60
2023/07/02 00:48:33;;;;;;;3.80;3.03;;;15.70;99.90;;;;;;5057743;28;20444;-62
2023/07/02 00:51:01;;;;;;;6.87;4.10;;;15.70;99.90;;;;;;5056785;28;20468;-61
2023/07/02 00:53:27;;;;;;;4.47;3.30;;;15.60;99.90;;;;;;5056486;28;20961;-60
2023/07/02 00:55:55;;;;;;;4.40;3.17;;;15.50;99.90;;;;;;5056490;28;20444;-62
2023/07/02 00:58:22;;;;;;;4.40;3.80;;;15.50;99.90;;;;;;5056108;28;20806;-61
2023/07/02 01:00:49;;;;;;;4.10;3.40;;;15.50;99.90;;;;;;5056437;28;20468;-62
2023/07/02 01:03:16;;;;;;;3.90;3.60;;;15.40;99.90;;;;;;5056551;28;20447;-61
2023/07/02 01:05:43;;;;;;;4.67;3.80;;;15.40;99.90;;;;;;5056665;28;20444;-61
2023/07/02 01:08:10;;;;;;;3.43;3.03;;;15.30;99.90;;;;;;5056707;28;20451;-61
2023/07/02 01:10:37;;;;;;;3.87;3.10;;;15.30;99.90;;;;;;5056641;28;20470;-61
2023/07/02 01:13:13;;;;;;;7.63;3.73;;;15.20;99.90;;;;;;5056670;28;20447;-60
2023/07/02 01:15:40;;;;;;;3.33;3.00;;;15.20;99.90;;;;;;5056828;28;20438;-61
2023/07/02 01:18:08;;;;;;;4.80;3.60;;;15.10;99.90;;;;;;5056715;28;20483;-61
2023/07/02 01:20:38;;;;;;;5.70;3.60;;;15.10;99.90;;;;;;5056239;28;20468;-60
2023/07/02 01:23:05;;;;;;;7.10;3.83;;;15.00;99.90;;;;;;5056542;28;20834;-61
2023/07/02 01:25:36;;;;;;;7.80;4.10;;;14.90;99.90;;;;;;5056672;28;20443;-61
2023/07/02 01:28:03;;;;;;;7.53;3.77;;;14.90;99.90;;;;;;5056292;28;20436;-60
2023/07/02 01:30:30;;;;;;;4.10;3.40;;;14.80;99.90;;;;;;5055725;28;21012;-61
2023/07/02 01:32:56;;;;;;;5.63;4.23;;;14.80;99.90;;;;;;5056069;28;20444;-60
2023/07/02 01:35:23;;;;;;;5.47;4.00;;;14.70;99.90;;;;;;5056088;28;20471;-61
2023/07/02 01:37:51;;;;;;;4.13;3.77;;;14.70;99.90;;;;;;5056052;28;20930;-60
2023/07/02 01:40:18;;;;;;;5.30;4.70;;;14.60;99.90;;;;;;5054799;28;21001;-61
2023/07/02 01:42:45;;;;;;;4.63;4.23;;;14.60;99.90;;;;;;5055796;28;20448;-60
2023/07/02 01:45:12;;;;;;;4.63;3.90;;;14.60;99.90;;;;;;5055856;28;20941;-61
2023/07/02 01:47:38;;;;;;;6.47;5.03;;;14.60;99.90;;;;;;5056001;28;20440;-60
2023/07/02 01:50:07;;;;;;;5.97;4.17;;;14.60;99.90;;;;;;5055548;28;20555;-60
2023/07/02 01:52:34;;;;;;;6.27;4.50;;;14.60;99.90;;;;;;5055377;28;20447;-60
2023/07/02 01:55:02;;;;;;;7.60;4.70;;;14.70;99.90;;;;;;5055297;28;20448;-60
2023/07/02 01:57:30;;;;;;;5.30;4.80;;;14.70;99.90;;;;;;5055825;28;20475;-60
2023/07/02 01:59:57;;;;;;;4.83;4.20;;;14.70;99.90;;;;;;5055941;28;20472;-61
2023/07/02 02:02:24;;;;;;;5.10;4.70;;;14.70;99.90;;;;;;5055954;28;20498;-61
2023/07/02 02:04:51;;;;;;;6.90;5.50;;;14.80;99.90;;;;;;5056381;28;20559;-61
2023/07/02 02:07:17;;;;;;;4.90;4.50;;;14.80;99.90;;;;;;5055992;28;20444;-61
2023/07/02 02:09:44;;;;;;;7.00;4.50;;;14.80;99.90;;;;;;5055906;28;20444;-61
2023/07/02 02:12:14;;;;;;;5.00;4.50;;;14.80;99.90;;;;;;5056218;28;20454;-60
2023/07/02 02:14:41;;;;;;;5.50;4.73;;;14.90;99.90;;;;;;5056202;28;20452;-62
2023/07/02 02:17:07;;;;;;;5.13;4.67;;;14.90;99.90;;;;;;5055447;28;20480;-62
2023/07/02 02:19:34;;;;;;;4.73;4.30;;;14.90;99.90;;;;;;5055816;28;20803;-60
2023/07/02 02:22:01;;;;;;;6.50;4.90;;;14.90;99.90;;;;;;5055500;28;20448;-61
2023/07/02 02:24:27;;;;;;;8.77;4.80;;;15.00;99.90;;;;;;5054804;28;20455;-62
2023/07/02 02:26:54;;;;;;;5.30;4.80;;;15.00;99.90;;;;;;5054606;28;20436;-62
2023/07/02 02:29:22;;;;;;;5.77;5.17;;;15.00;99.90;;;;;;5055246;28;20451;-61
2023/07/02 02:31:49;;;;;;;7.23;5.80;;;15.00;99.90;;;;;;5054540;28;20829;-60
2023/07/02 02:34:16;;;;;;;5.93;5.33;;;15.10;99.90;;;;;;5054863;28;20444;-60
2023/07/02 02:36:42;;;;;;;8.83;5.23;;;15.10;99.90;;;;;;5054716;28;20452;-60
2023/07/02 02:39:09;;;;;;;8.17;5.10;;;15.10;99.90;;;;;;5054701;28;20445;-61
2023/07/02 02:41:36;;;;;;;6.13;5.20;;;15.20;99.90;;;;;;5054948;28;20482;-60
2023/07/02 02:44:03;;;;;;;6.73;5.30;;;15.20;99.90;;;;;;5055182;28;20448;-59
2023/07/02 02:46:32;;;;;;;7.87;5.73;;;15.20;99.90;;;;;;5055234;28;20448;-59
2023/07/02 02:48:59;;;;;;;8.07;5.80;;;15.20;99.90;;;;;;5055300;28;20848;-61
2023/07/02 02:51:25;;;;;;;7.37;5.10;;;15.20;99.90;;;;;;5054517;28;20464;-60
2023/07/02 02:53:52;;;;;;;7.30;5.53;;;15.20;99.90;;;;;;5055109;28;20448;-61
2023/07/02 02:56:19;;;;;;;6.30;5.53;;;15.20;99.90;;;;;;5055517;28;20444;-60
2023/07/02 02:58:46;;;;;;;8.93;5.50;;;15.20;99.90;;;;;;5054548;28;20480;-61
2023/07/02 03:01:12;;;;;;;7.30;5.40;;;15.30;99.90;;;;;;5054294;28;20475;-61
2023/07/02 03:03:45;;;;;;;8.03;5.80;;;15.30;99.90;;;;;;5054017;28;20451;-60
2023/07/02 03:06:12;;;;;;;5.17;4.77;;;15.30;99.90;;;;;;5054599;28;20502;-59
2023/07/02 03:08:40;;;;;;;7.07;6.37;;;15.30;99.90;;;;;;5053952;28;20926;-60
2023/07/02 03:11:07;;;;;;;8.07;5.47;;;15.30;99.90;;;;;;5054065;28;20467;-62
2023/07/02 03:13:34;;;;;;;7.10;6.33;;;15.40;99.90;;;;;;5054303;28;20449;-61
2023/07/02 03:16:00;;;;;;;8.13;6.50;;;15.40;99.90;;;;;;5053554;28;20450;-61
2023/07/02 03:18:27;;;;;;;9.53;6.00;;;15.40;99.90;;;;;;5053485;28;20486;-61
2023/07/02 03:20:55;;;;;;;7.10;6.50;;;15.40;99.90;;;;;;5053707;28;20460;-60
2023/07/02 03:23:22;;;;;;;8.00;6.33;;;15.50;99.90;;;;;;5053580;28;20966;-61
2023/07/02 03:25:48;;;;;;;8.00;6.17;;;15.50;99.90;;;;;;5053672;28;20452;-61
2023/07/02 03:28:15;;;;;;;8.00;6.73;;;15.50;99.90;;;;;;5053608;28;20463;-61
2023/07/02 03:30:42;;;;;;;9.63;6.90;;;15.60;99.90;;;;;;5053029;28;20479;-61
2023/07/02 03:33:10;;;;;;;7.50;6.80;;;15.60;99.90;;;;;;5053490;28;20451;-62
2023/07/02 03:35:37;;;;;;;7.50;6.80;;;15.60;99.90;;;;;;5053507;28;20440;-62
2023/07/02 03:38:05;;;;;;;7.53;6.27;;;15.70;99.90;;;;;;5053363;28;20483;-61
2023/07/02 03:40:32;;;;;;;8.00;6.40;;;15.70;99.90;;;;;;5053280;28;20503;-61
2023/07/02 03:42:59;;;;;;;8.20;7.40;;;15.70;99.90;;;;;;5053196;28;20773;-61
2023/07/02 03:45:25;;;;;;;6.50;6.00;;;15.70;99.90;;;;;;5053183;28;20451;-61
2023/07/02 03:47:52;;;;;;;6.77;6.00;;;15.80;99.90;;;;;;5053239;28;20447;-61
2023/07/02 03:50:19;;;;;;;8.00;7.30;;;15.80;99.90;;;;;;5052987;28;20490;-62
2023/07/02 03:52:46;;;;;;;9.50;6.70;;;15.80;99.90;;;;;;5053089;28;20448;-62
2023/07/02 03:55:14;;;;;;;13.77;7.77;;;15.80;99.90;;;;;;5053024;28;20471;-60
2023/07/02 03:57:41;;;;;;;7.10;6.40;;;15.80;99.90;;;;;;5052487;28;20800;-61
2023/07/02 04:00:11;;;;;;;8.00;6.67;;;15.90;99.90;;;;;;5052913;28;20472;-58
2023/07/02 04:02:38;;;;;;;11.93;6.30;;;15.90;99.90;;;;;;5052664;28;20447;-61
2023/07/02 04:05:05;;;;;;;7.80;6.43;;;15.90;99.90;;;;;;5052978;28;20444;-61
2023/07/02 04:07:32;;;;;;;7.47;6.53;;;15.90;99.90;;;;;;5053018;28;20442;-61
2023/07/02 04:11:54;;;;;;;7.13;6.40;;;15.90;99.90;;;;;;5090612;27;20549;-61
2023/07/02 04:14:21;;;;;;;6.90;6.30;;;15.90;99.90;;;;;;5090658;28;20509;-62
2023/07/02 04:16:47;;;;;;;7.70;6.83;;;15.90;99.90;;;;;;5090517;28;20948;-61
2023/07/02 04:19:15;;;;;;;8.50;7.70;;;15.90;99.90;;;;;;5090993;28;20439;-62
2023/07/02 04:21:41;;;;;;;7.90;7.10;;;15.80;99.90;;;;;;5090379;28;20868;-62
2023/07/02 04:24:08;;;;;;;7.63;6.93;;;15.80;99.90;;;;;;5090590;28;20442;-62
2023/07/02 04:26:36;;;;;;;7.80;7.00;;;15.70;99.90;;;;;;5090263;28;20446;-60
2023/07/02 04:29:04;;;;;;;8.40;7.10;;;15.70;99.90;;;;;;5090183;28;20469;-62
2023/07/02 04:31:31;;;;;;;13.33;7.00;;;15.70;99.90;;;;;;5084481;22;20492;-64
2023/07/02 04:33:59;;;;;;;7.50;6.10;;;15.70;99.90;;;;;;5050025;28;21053;-62
2023/07/02 04:36:26;;;;;;;6.20;5.50;;;15.80;99.90;;;;;;5050092;28;20445;-62
2023/07/02 04:38:52;;;;;;;7.73;5.73;;;15.80;99.90;;;;;;5050508;28;20452;-63
2023/07/02 04:41:20;;;;;;;11.77;5.70;;;15.80;99.90;;;;;;5050708;28;20486;-63
2023/07/02 04:43:47;;;;;;;8.90;6.30;;;15.80;99.90;;;;;;5050397;28;20950;-64
2023/07/02 04:46:17;;;;;;;8.73;5.43;;;15.80;99.90;;;;;;5050429;28;20448;-64
2023/07/02 04:48:44;;;;;;;9.30;5.77;;;15.80;99.90;;;;;;5050333;28;20435;-62
2023/07/02 04:51:11;;;;;;;7.80;5.73;;;15.80;99.90;;;;;;5050269;28;21002;-61
2023/07/02 04:53:38;;;;;;;10.20;6.13;;;15.70;99.90;;;;;;5050300;28;20444;-62
2023/07/02 04:56:05;;;;;;;7.60;5.47;;;15.70;99.90;;;;;;5049922;28;20444;-63
2023/07/02 04:58:31;;;;;;;10.50;5.73;;;15.70;99.90;;;;;;5050394;28;20448;-63
2023/07/02 05:00:58;;;;;;;7.70;5.30;;;15.70;99.90;;;;;;5050065;28;20475;-63
2023/07/02 05:03:27;;;;;;;9.23;5.47;;;15.70;99.90;;;;;;5050380;28;20943;-63
2023/07/02 05:05:54;;;;;;;8.60;5.20;;;15.60;99.90;;;;;;5050006;28;20444;-63
2023/07/02 05:08:21;;;;;;;10.77;6.17;;;15.60;99.90;;;;;;5050462;28;20453;-63
2023/07/02 05:10:47;;;;;;;9.13;5.77;;;15.60;99.90;;;;;;5050364;28;20484;-62
2023/07/02 05:13:14;;;;;;;8.20;5.53;;;15.60;99.90;;;;;;5049593;28;20440;-63
2023/07/02 05:15:41;;;;;;;8.60;5.37;;;15.60;99.90;;;;;;5049910;28;20451;-62
2023/07/02 05:18:07;;;;;;;12.30;6.10;;;15.70;99.90;;;;;;5050035;28;20463;-63
2023/07/02 05:20:36;;;;;;;11.60;5.37;;;15.80;99.90;;;;;;5049433;28;20467;-63
2023/07/02 05:23:02;;;;;;;6.30;5.70;;;15.80;99.90;;;;;;5037852;28;20448;-64
2023/07/02 05:25:29;;;;;;;9.73;6.57;;;15.90;99.90;;;;;;5036233;28;20456;-63
2023/07/02 05:27:56;;;;;;;8.40;5.63;;;16.00;99.90;;;;;;5036171;28;20460;-63
2023/07/02 05:30:22;;;;;;;9.73;5.30;;;16.10;99.90;;;;;;5036372;28;20480;-62
2023/07/02 05:32:49;;;;;;;7.53;5.67;;;16.20;99.90;;;;;;5037477;28;20429;-62
2023/07/02 05:35:16;;;;;;;8.83;5.10;;;16.30;99.90;;;;;;5036347;28;20453;-64
2023/07/02 05:37:45;;;;;;;8.17;5.20;;;16.40;99.90;;;;;;5036619;28;20440;-63
2023/07/02 05:40:12;;;;;;;9.60;5.33;;;16.40;99.90;;;;;;5035872;28;20885;-63
2023/07/02 05:42:39;;;;;;;8.27;4.53;;;16.40;99.90;;;;;;5036535;28;20445;-64
2023/07/02 05:45:06;;;;;;;13.03;5.43;;;16.30;99.90;;;;;;5036441;28;20449;-64
2023/07/02 05:47:33;;;;;;;8.57;5.20;;;16.30;99.90;;;;;;5036589;28;20445;-64
2023/07/02 05:50:00;;;;;;;8.37;5.33;;;16.20;99.90;;;;;;5036519;28;20449;-63
2023/07/02 05:52:26;;;;;;;8.23;5.47;;;16.10;99.90;;;;;;5036223;28;20969;-64
2023/07/02 05:54:54;;;;;;;9.83;4.77;;;16.10;99.90;;;;;;5036411;28;20448;-62
2023/07/02 05:57:21;;;;;;;7.90;5.40;;;16.40;99.90;;;;;;5035771;28;20456;-62
2023/07/02 05:59:48;;;;;;;5.23;4.00;;;16.70;99.90;;;;;;5035846;28;20449;-63
2023/07/02 06:02:14;;;;;;;7.60;5.00;;;17.10;99.90;;;;;;5036478;28;20442;-64
2023/07/02 06:04:41;;;;;;;6.23;4.60;;;17.40;99.90;;;;;;5036114;28;20441;-64
2023/07/02 06:07:08;;;;;;;8.70;5.03;;;17.60;99.90;;;;;;5036115;28;20437;-63
2023/07/02 06:09:35;;;;;;;8.30;5.40;;;17.70;99.90;;;;;;5036354;28;20456;-63
2023/07/02 06:12:03;;;;;;;7.40;4.47;;;17.90;99.90;;;;;;5036156;28;21007;-63
2023/07/02 06:14:30;;;;;;;9.17;5.23;;;18.10;99.90;;;;;;5036357;28;20441;-62
2023/07/02 06:16:59;;;;;;;6.57;4.57;;;18.20;99.90;;;;;;5035898;28;20454;-63
2023/07/02 06:19:25;;;;;;;9.50;4.90;;;18.30;99.90;;;;;;5035785;28;20449;-63
2023/07/02 06:21:52;;;;;;;10.10;5.40;;;18.30;99.90;;;;;;5035545;28;20839;-63
2023/07/02 06:24:19;;;;;;;9.37;4.70;;;18.30;99.90;;;;;;5036770;28;20461;-63
2023/07/02 06:26:46;;;;;;;12.43;5.10;;;18.40;99.90;;;;;;5035924;28;20449;-63
2023/07/02 06:29:14;;;;;;;11.07;4.93;;;18.40;99.90;;;;;;5035890;28;20456;-62
2023/07/02 06:31:41;;;;;;;12.43;5.10;;;18.40;99.90;;;;;;5034941;28;20496;-62
2023/07/02 06:34:08;;;;;;;11.33;5.27;;;18.50;99.90;;;;;;5034136;28;20566;-63
2023/07/02 06:36:35;;;;;;;9.13;5.60;;;18.50;99.90;;;;;;5035380;28;20481;-62
2023/07/02 06:39:02;;;;;;;12.60;5.40;;;18.50;99.90;;;;;;5035230;28;20449;-62
2023/07/02 06:41:29;;;;;;;14.70;6.00;;;18.60;99.90;;;;;;5035046;28;20493;-63
2023/07/02 06:43:55;;;;;;;9.67;5.27;;;18.50;99.90;;;;;;5034763;28;20449;-62
2023/07/02 06:46:23;;;;;;;16.30;6.33;;;18.50;99.90;;;;;;5034488;28;20456;-62
2023/07/02 06:48:50;;;;;;;11.77;5.43;;;18.40;99.70;;;;;;5034692;28;20548;-62
2023/07/02 06:51:18;;;;;;;10.40;5.63;;;18.40;98.70;;;;;;5034399;28;20488;-62
2023/07/02 06:53:45;;;;;;;9.27;5.73;;;18.40;97.00;;;;;;5034965;28;20449;-62
2023/07/02 06:56:12;;;;;;;12.80;5.43;;;18.30;95.40;;;;;;5034862;28;20471;-62
2023/07/02 06:58:41;;;;;;;10.90;5.60;;;18.40;95.20;;;;;;5034393;28;20798;-62
2023/07/02 07:01:08;;;;;;;12.80;6.43;;;18.50;94.30;;;;;;5034671;28;20469;-63
2023/07/02 07:03:36;;;;;;;11.53;5.63;;;18.50;93.50;;;;;;5034784;28;20452;-63
2023/07/02 07:06:04;;;;;;;11.73;6.03;;;18.70;92.50;;;;;;5033942;28;20903;-63
2023/07/02 07:08:30;;;;;;;11.10;5.13;;;18.70;92.30;;;;;;5033667;28;20829;-63
2023/07/02 07:10:57;;;;;;;9.00;6.10;;;18.80;92.20;;;;;;5033540;28;20488;-63
2023/07/02 07:13:24;;;;;;;12.00;6.70;;;18.80;92.30;;;;;;5034257;28;20449;-64
2023/07/02 07:15:51;;;;;;;10.20;5.57;;;19.00;92.30;;;;;;5035292;28;20452;-63
2023/07/02 07:18:18;;;;;;;10.20;5.60;;;19.10;92.20;;;;;;5035844;28;20449;-63
2023/07/02 07:20:46;;;;;;;14.20;6.10;;;19.10;92.20;;;;;;5035756;28;20584;-63
2023/07/02 07:23:13;;;;;;;8.73;5.23;;;19.10;91.30;;;;;;5036311;28;20441;-63
2023/07/02 07:25:39;;;;;;;10.27;6.20;;;19.00;90.80;;;;;;5035622;28;20447;-62
2023/07/02 07:28:06;;;;;;;12.90;5.80;;;18.90;90.70;;;;;;5036051;28;20455;-64
2023/07/02 07:30:33;;;;;;;13.37;5.50;;;19.00;90.30;;;;;;5035981;28;20576;-63
2023/07/02 07:33:00;;;;;;;10.73;5.17;;;19.10;87.90;;;;;;5036218;28;20823;-62
2023/07/02 07:35:26;;;;;;;9.40;5.67;;;19.20;86.20;;;;;;5036245;28;20445;-62
2023/07/02 07:37:55;;;;;;;9.57;5.47;;;19.20;83.90;;;;;;5037422;28;20453;-63
2023/07/02 07:40:21;;;;;;;9.70;6.10;;;19.20;83.90;;;;;;5038608;28;20469;-64
2023/07/02 07:42:48;;;;;;;15.07;5.93;;;19.30;83.80;;;;;;5037195;28;20453;-64
2023/07/02 07:45:15;;;;;;;9.37;5.70;;;19.40;82.90;;;;;;5036907;28;20937;-63
2023/07/02 07:47:42;;;;;;;10.23;5.67;;;19.40;81.70;;;;;;5036244;28;20445;-63
2023/07/02 07:50:10;;;;;;;14.07;5.87;;;19.40;80.60;;;;;;5037817;28;20469;-64
2023/07/02 07:52:38;;;;;;;14.43;6.63;;;19.40;79.20;;;;;;5038043;28;20531;-64
2023/07/02 07:55:07;;;;;;;14.57;6.00;;;19.50;78.30;;;;;;5038071;28;20502;-66
2023/07/02 07:57:35;;;;;;;12.10;6.50;;;19.50;75.60;;;;;;5040623;28;20459;-64
2023/07/02 08:00:03;;;;;;;12.13;6.10;;;19.50;73.00;;;;;;5038821;28;20449;-64
2023/07/02 08:02:30;;;;;;;12.80;6.30;;;19.40;72.00;;;;;;5038153;28;20796;-63
2023/07/02 08:04:57;;;;;;;11.33;6.33;;;19.30;71.80;;;;;;5039877;28;20805;-65
2023/07/02 08:07:24;;;;;;;11.23;5.97;;;19.30;72.30;;;;;;5036386;28;20437;-63
2023/07/02 08:09:50;;;;;;;19.20;6.33;;;19.30;72.40;;;;;;5038979;28;20445;-64
2023/07/02 08:12:18;;;;;;;12.93;5.80;;;19.30;71.80;;;;;;5036380;28;20477;-65
2023/07/02 08:14:45;;;;;;;10.67;6.73;;;19.30;71.40;;;;;;5036132;28;20453;-62
2023/07/02 08:17:12;;;;;;;17.13;6.33;;;19.10;71.10;;;;;;5038020;28;20445;-64
2023/07/02 08:19:39;;;;;;;11.10;5.87;;;18.90;72.00;;;;;;5035750;28;20974;-65
2023/07/02 08:22:06;;;;;;;9.20;5.50;;;18.90;71.50;;;;;;5034692;28;20465;-63
2023/07/02 08:24:33;;;;;;;11.57;6.73;;;18.80;70.40;;;;;;5034836;28;20449;-62
2023/07/02 08:27:02;;;;;;;12.57;6.27;;;18.60;70.70;;;;;;5034558;28;20453;-63
2023/07/02 08:29:30;;;;;;;15.03;6.90;;;18.70;71.40;;;;;;5034626;28;20951;-64
2023/07/02 08:31:57;;;;;;;15.07;6.70;;;19.00;71.20;;;;;;5034028;28;20568;-64
2023/07/02 08:34:24;;;;;;;12.57;6.60;;;19.30;70.00;;;;;;5034222;28;20448;-65
2023/07/02 08:36:51;;;;;;;14.53;6.43;;;19.40;68.00;;;;;;5034525;28;20445;-65
2023/07/02 08:39:19;;;;;;;11.80;5.97;;;19.20;66.10;;;;;;5034526;28;20506;-65
2023/07/02 08:41:46;;;;;;;16.40;7.67;;;19.10;66.70;;;;;;5035009;28;20463;-63
2023/07/02 08:44:14;;;;;;;9.57;5.20;;;19.20;67.30;;;;;;5034355;28;20453;-63
2023/07/02 08:46:43;;;;;;;11.00;6.90;;;19.50;66.20;;;;;;5034850;28;20449;-65
2023/07/02 08:49:10;;;;;;;13.90;6.50;;;19.50;64.50;;;;;;5034629;28;20448;-64
2023/07/02 08:51:37;;;;;;;10.83;5.97;;;19.50;63.40;;;;;;5034482;28;21013;-64
2023/07/02 08:54:04;;;;;;;7.73;4.83;;;19.50;63.30;;;;;;5034448;28;20544;-64
2023/07/02 08:56:31;;;;;;;9.47;5.33;;;19.60;62.30;;;;;;5035578;28;20480;-65
2023/07/02 08:58:58;;;;;;;8.70;5.33;;;19.70;61.20;;;;;;5038534;28;20460;-66
2023/07/02 09:01:25;;;;;;;11.80;6.20;;;20.00;60.10;;;;;;5036878;28;20469;-65
2023/07/02 09:03:53;;;;;;;10.80;6.10;;;20.40;59.40;;;;;;5037923;28;20456;-65
2023/07/02 09:06:20;;;;;;;7.60;5.10;;;20.70;57.70;;;;;;5038192;28;20461;-63
2023/07/02 09:08:47;;;;;;;11.60;6.50;;;20.80;56.10;;;;;;5037350;28;20552;-64
2023/07/02 09:11:16;;;;;;;9.47;5.90;;;20.80;56.10;;;;;;5036862;28;20505;-63
2023/07/02 09:13:44;;;;;;;13.73;7.20;;;20.80;56.20;;;;;;5037624;28;20874;-63
2023/07/02 09:16:22;;;;;;;9.80;5.63;;;20.80;55.00;;;;;;5036298;28;20956;-62
2023/07/02 09:19:02;;;;;;;13.60;6.73;;;20.90;54.30;;;;;;5037912;28;20431;-63
2023/07/02 09:21:29;;;;;;;11.27;5.90;;;21.10;53.90;;;;;;5038495;28;20467;-63
2023/07/02 09:23:56;;;;;;;9.70;5.90;;;21.40;53.80;;;;;;5039543;28;20951;-63
2023/07/02 09:26:24;;;;;;;10.23;5.63;;;21.50;52.70;;;;;;5040015;28;20504;-62
2023/07/02 09:28:51;;;;;;;8.47;6.23;;;21.40;50.80;;;;;;5039063;28;20538;-64
2023/07/02 09:31:18;;;;;;;11.37;6.57;;;21.00;50.60;;;;;;5039795;28;20482;-64
2023/07/02 09:33:44;;;;;;;16.67;7.23;;;20.70;51.20;;;;;;5038646;28;20453;-63
2023/07/02 09:36:13;;;;;;;8.33;6.50;;;20.60;51.90;;;;;;5037269;28;20457;-62
2023/07/02 09:38:41;;;;;;;10.90;6.03;;;20.80;52.30;;;;;;5037043;28;20447;-63
2023/07/02 09:41:08;;;;;;;12.07;7.27;;;20.90;52.20;;;;;;5038873;28;20465;-62
2023/07/02 09:43:36;;;;;;;9.33;6.03;;;21.10;51.60;;;;;;5036816;28;20456;-62
2023/07/02 09:46:04;;;;;;;9.60;5.80;;;21.10;50.40;;;;;;5036066;28;20480;-63
2023/07/02 09:48:36;;;;;;;10.37;5.97;;;21.10;50.50;;;;;;5036022;28;20446;-63
2023/07/02 09:51:03;;;;;;;13.83;6.93;;;21.10;50.30;;;;;;5035935;28;20962;-64
2023/07/02 09:53:32;;;;;;;12.87;5.57;;;21.00;50.30;;;;;;5036117;28;20486;-63
2023/07/02 09:56:00;;;;;;;10.80;5.63;;;21.00;50.20;;;;;;5035867;28;20485;-64
2023/07/02 09:58:26;;;;;;;13.00;7.03;;;20.90;50.20;;;;;;5035574;28;20940;-64
2023/07/02 10:00:53;;;;;;;12.80;7.17;;;21.00;50.10;;;;;;5035728;28;20502;-63
2023/07/02 10:03:29;;;;;;;11.07;5.30;;;21.30;49.40;;;;;;5035273;28;20447;-64
2023/07/02 10:06:05;;;;;;;15.00;6.57;;;21.50;48.70;;;;;;5035884;28;20432;-64
2023/07/02 10:08:33;;;;;;;13.40;5.60;;;21.70;47.90;;;;;;5035222;28;20441;-63
2023/07/02 10:11:13;;;;;;;9.83;6.00;;;21.60;47.80;;;;;;5035066;28;20473;-62
2023/07/02 10:13:41;;;;;;;11.13;6.00;;;21.50;47.70;;;;;;5035874;28;20485;-65
2023/07/02 10:16:08;;;;;;;11.27;6.03;;;21.20;47.40;;;;;;5035197;28;20454;-64
2023/07/02 10:18:35;;;;;;;10.43;5.67;;;21.10;47.40;;;;;;5035536;28;20442;-64
2023/07/02 10:21:14;;;;;;;10.83;5.60;;;21.10;47.00;;;;;;5034945;28;20503;-63
2023/07/02 10:23:42;;;;;;;8.10;5.47;;;21.10;47.10;;;;;;5035490;28;20430;-64
2023/07/02 10:26:15;;;;;;;8.97;5.70;;;21.10;47.30;;;;;;5037571;28;20451;-66
2023/07/02 10:28:41;;;;;;;9.37;5.07;;;21.10;47.30;;;;;;5039482;28;20448;-66
2023/07/02 10:33:36;;;;;;;10.47;6.60;;;20.90;47.60;;;;;;5053938;28;21055;-60
2023/07/02 10:36:03;;;;;;;6.97;5.20;;;21.00;47.50;;;;;;5055255;28;20442;-60
2023/07/02 10:38:30;;;;;;;13.20;6.07;;;21.20;46.90;;;;;;5054940;28;20452;-59
2023/07/02 10:41:00;;;;;;;10.57;5.80;;;21.40;46.80;;;;;;5055079;28;20456;-60
2023/07/02 10:43:28;;;;;;;8.13;5.07;;;21.50;46.60;;;;;;5055064;28;20439;-60
2023/07/02 10:45:55;;;;;;;9.60;5.80;;;21.60;46.10;;;;;;5055686;28;20853;-61
2023/07/02 10:48:22;;;;;;;7.17;5.00;;;21.50;46.10;;;;;;5055109;28;20443;-60
2023/07/02 10:50:48;;;;;;;9.13;5.17;;;21.50;46.50;;;;;;5056108;28;20469;-61
2023/07/02 10:53:17;;;;;;;10.87;5.40;;;21.70;46.70;;;;;;5056456;28;20475;-60
2023/07/02 10:55:44;;;;;;;9.50;5.67;;;22.00;46.60;;;;;;5056716;28;20473;-60
2023/07/02 10:58:14;;;;;;;9.83;5.80;;;22.10;46.40;;;;;;5057800;28;20446;-60
2023/07/02 11:00:45;;;;;;;12.40;6.43;;;22.20;46.10;;;;;;5057591;28;20490;-62
2023/07/02 11:03:19;;;;;;;10.43;5.30;;;22.20;46.10;;;;;;5057153;28;20443;-61
2023/07/02 11:05:47;;;;;;;11.13;5.60;;;22.00;46.10;;;;;;5057840;28;20533;-60
2023/07/02 11:08:21;;;;;;;8.60;4.70;;;21.80;45.80;;;;;;5056969;28;20442;-59
2023/07/02 11:10:47;;;;;;;9.90;5.77;;;21.70;45.70;;;;;;5055932;28;20470;-62
2023/07/02 11:13:17;;;;;;;10.60;5.60;;;21.60;46.00;;;;;;5059582;28;20483;-61
2023/07/02 11:15:45;;;;;;;6.33;4.63;;;21.50;46.50;;;;;;5057680;28;20545;-62
2023/07/02 11:18:13;;;;;;;8.23;5.20;;;21.60;46.80;;;;;;5055026;28;20450;-60
2023/07/02 11:20:41;;;;;;;11.83;5.20;;;21.80;46.80;;;;;;5054077;28;20924;-60
2023/07/02 11:23:18;;;;;;;7.40;5.33;;;21.80;46.60;;;;;;5053938;28;20889;-59
2023/07/02 11:25:55;;;;;;;9.00;6.13;;;22.00;46.50;;;;;;5054024;28;20432;-60
2023/07/02 11:28:24;;;;;;;10.40;4.33;;;22.00;46.70;;;;;;5053723;28;20427;-61
2023/07/02 11:30:51;;;;;;;10.33;5.17;;;22.20;45.90;;;;;;5054154;28;20481;-60
2023/07/02 11:33:18;;;;;;;9.80;6.00;;;22.10;45.50;;;;;;5053706;28;20482;-59
2023/07/02 11:35:44;;;;;;;7.73;5.03;;;21.90;45.80;;;;;;5054035;28;20849;-59
2023/07/02 11:38:12;;;;;;;8.80;5.47;;;21.70;46.00;;;;;;5053656;28;20457;-56
2023/07/02 11:40:39;;;;;;;9.50;5.13;;;21.60;46.00;;;;;;5054753;28;20526;-59
2023/07/02 11:43:06;;;;;;;9.10;4.93;;;21.50;46.20;;;;;;5054052;28;20482;-59
2023/07/02 11:45:34;;;;;;;8.63;4.77;;;21.40;46.10;;;;;;5053811;28;20444;-59
2023/07/02 11:48:02;;;;;;;8.20;4.60;;;21.40;46.20;;;;;;5053700;28;20571;-60
2023/07/02 11:50:30;;;;;;;8.90;5.13;;;21.40;46.10;;;;;;5054106;28;20455;-62
2023/07/02 11:52:56;;;;;;;11.43;5.50;;;21.50;46.10;;;;;;5054332;28;20520;-60
2023/07/02 11:55:23;;;;;;;7.90;4.67;;;21.50;45.60;;;;;;5054232;28;20450;-61
2023/07/02 11:57:50;;;;;;;8.90;5.50;;;21.50;45.60;;;;;;5054760;28;20449;-58
2023/07/02 12:00:17;;;;;;;8.10;5.03;;;21.60;45.30;;;;;;5053945;28;20453;-60
2023/07/02 12:02:45;;;;;;;8.77;5.50;;;21.80;45.30;;;;;;5054067;28;20442;-60
2023/07/02 12:05:12;;;;;;;11.13;5.27;;;22.30;45.00;;;;;;5054326;28;20455;-63
2023/07/02 12:07:39;;;;;;;9.80;5.13;;;23.00;44.20;;;;;;5054726;28;20515;-60
2023/07/02 12:10:08;;;;;;;11.03;5.17;;;23.30;43.70;;;;;;5053914;28;20451;-58
2023/07/02 12:12:34;;;;;;;9.73;5.50;;;23.40;43.60;;;;;;5054555;28;20493;-60
2023/07/02 12:15:02;;;;;;;7.70;5.70;;;23.40;43.60;;;;;;5054857;28;20447;-57
2023/07/02 12:17:28;;;;;;;7.93;5.37;;;23.40;43.90;;;;;;5053732;28;20810;-60
2023/07/02 12:19:57;;;;;;;8.03;4.43;;;23.40;43.20;;;;;;5053243;28;20447;-60
2023/07/02 12:22:23;;;;;;;14.57;6.00;;;23.60;42.70;;;;;;5053171;28;20985;-58
2023/07/02 12:24:53;;;;;;;8.07;5.10;;;23.70;41.90;;;;;;5053802;28;20535;-60
2023/07/02 12:27:20;;;;;;;10.50;5.00;;;23.40;42.30;;;;;;5054226;28;20473;-60
2023/07/02 12:29:48;;;;;;;10.47;4.60;;;23.00;42.60;;;;;;5054711;28;20450;-58
2023/07/02 12:32:15;;;;;;;7.47;4.80;;;23.10;43.20;;;;;;5054924;28;20473;-60
2023/07/02 12:34:42;;;;;;;9.40;5.33;;;23.70;42.90;;;;;;5058125;28;20452;-60
2023/07/02 12:37:10;;;;;;;8.40;4.80;;;24.30;41.80;;;;;;5057467;28;20439;-59
2023/07/02 12:39:36;;;;;;;8.10;5.50;;;24.30;41.00;;;;;;5056824;28;20453;-60
2023/07/02 12:42:04;;;;;;;11.93;5.80;;;23.80;40.90;;;;;;5057160;28;20477;-59
2023/07/02 12:44:31;;;;;;;7.27;4.37;;;23.50;41.20;;;;;;5058057;28;20454;-60
2023/07/02 12:46:57;;;;;;;15.27;5.70;;;23.40;41.50;;;;;;5057897;28;20466;-60
2023/07/02 12:49:24;;;;;;;7.90;5.13;;;23.30;42.00;;;;;;5057549;28;20955;-58